createdAt,value
2019-02-26T00:00:30.362Z,2.48
2019-02-26T00:01:30.912Z,2.50
2019-02-26T00:02:30.518Z,2.45
2019-02-26T00:03:31.422Z,2.47
2019-02-26T00:04:32.141Z,2.48
2019-02-26T00:05:31.198Z,2.36
2019-02-26T00:06:30.325Z,2.33
2019-02-26T00:07:32.071Z,2.33
2019-02-26T00:08:31.709Z,2.26
2019-02-26T00:09:32.347Z,2.22
2019-02-26T00:10:31.544Z,2.25
2019-02-26T00:11:30.863Z,2.20
2019-02-26T00:12:31.044Z,2.12
2019-02-26T00:13:31.973Z,2.12
2019-02-26T00:14:30.421Z,2.15
2019-02-26T00:15:33.338Z,2.12
2019-02-26T00:16:35.349Z,2.04
2019-02-26T00:17:30.263Z,2.02
2019-02-26T00:18:30.143Z,1.93
2019-02-26T00:19:30.250Z,1.95
2019-02-26T00:20:33.278Z,2.04
2019-02-26T00:21:31.067Z,1.98
2019-02-26T00:22:32.235Z,1.92
2019-02-26T00:23:30.170Z,2.00
2019-02-26T00:24:30.850Z,1.82
2019-02-26T00:25:30.186Z,1.92
2019-02-26T00:26:30.054Z,1.86
2019-02-26T00:27:30.629Z,1.86
2019-02-26T00:28:30.032Z,1.88
2019-02-26T00:29:32.030Z,1.86
2019-02-26T00:30:31.188Z,1.88
2019-02-26T00:31:30.482Z,1.86
2019-02-26T00:32:31.857Z,1.77
2019-02-26T00:33:30.037Z,1.86
2019-02-26T00:34:32.164Z,1.85
2019-02-26T00:35:30.109Z,1.77
2019-02-26T00:36:31.586Z,1.86
2019-02-26T00:37:30.688Z,1.82
2019-02-26T00:38:29.927Z,1.81
2019-02-26T00:40:32.634Z,1.77
2019-02-26T00:41:31.852Z,1.79
2019-02-26T00:42:32.012Z,1.82
2019-02-26T00:43:30.658Z,1.81
2019-02-26T00:44:32.200Z,1.81
2019-02-26T00:45:31.754Z,1.82
2019-02-26T00:46:30.294Z,1.85
2019-02-26T00:47:33.676Z,1.81
2019-02-26T00:48:31.578Z,1.86
2019-02-26T00:49:30.255Z,1.82
2019-02-26T00:50:30.385Z,1.83
2019-02-26T00:51:29.880Z,1.85
2019-02-26T00:52:30.374Z,1.75
2019-02-26T00:53:30.631Z,1.85
2019-02-26T00:54:31.928Z,1.81
2019-02-26T00:56:31.704Z,1.75
2019-02-26T00:57:31.696Z,1.68
2019-02-26T00:58:32.115Z,1.64
2019-02-26T00:59:30.833Z,1.64
2019-02-26T01:00:30.865Z,1.65
2019-02-26T01:01:29.722Z,1.60
2019-02-26T01:02:29.689Z,1.53
2019-02-26T01:03:29.755Z,1.65
2019-02-26T01:04:29.691Z,1.63
2019-02-26T01:05:29.745Z,1.57
2019-02-26T01:06:31.167Z,1.46
2019-02-26T01:07:30.349Z,1.46
2019-02-26T01:08:29.633Z,1.47
2019-02-26T01:09:31.738Z,1.52
2019-02-26T01:10:29.590Z,1.46
2019-02-26T01:11:30.228Z,1.49
2019-02-26T01:12:30.975Z,1.43
2019-02-26T01:13:30.077Z,1.44
2019-02-26T01:14:29.550Z,1.39
2019-02-26T01:15:29.609Z,1.39
2019-02-26T01:16:29.551Z,1.31
2019-02-26T01:17:31.157Z,1.38
2019-02-26T01:18:29.502Z,1.28
2019-02-26T01:19:29.568Z,1.34
2019-02-26T01:20:30.219Z,1.31
2019-02-26T01:21:31.101Z,1.29
2019-02-26T01:22:31.093Z,1.39
2019-02-26T01:23:29.564Z,1.39
2019-02-26T01:24:30.997Z,1.26
2019-02-26T01:25:29.476Z,1.34
2019-02-26T01:26:29.415Z,1.28
2019-02-26T01:27:29.492Z,1.29
2019-02-26T01:28:29.394Z,1.34
2019-02-26T01:29:30.629Z,1.20
2019-02-26T01:30:31.311Z,1.24
2019-02-26T01:31:31.556Z,1.21
2019-02-26T01:32:29.357Z,1.21
2019-02-26T01:33:30.270Z,1.24
2019-02-26T01:34:29.392Z,1.26
2019-02-26T01:35:30.775Z,1.21
2019-02-26T01:36:29.308Z,1.21
2019-02-26T01:37:30.020Z,1.16
2019-02-26T01:38:29.287Z,1.14
2019-02-26T01:39:29.397Z,1.26
2019-02-26T01:40:29.287Z,1.21
2019-02-26T01:41:29.386Z,1.16
2019-02-26T01:42:29.882Z,1.28
2019-02-26T01:44:32.409Z,1.21
2019-02-26T01:45:30.480Z,1.20
2019-02-26T01:46:30.087Z,1.18
2019-02-26T01:47:29.257Z,1.11
2019-02-26T01:48:29.908Z,1.21
2019-02-26T01:49:29.264Z,1.18
2019-02-26T01:50:30.859Z,1.21
2019-02-26T01:51:29.247Z,1.13
2019-02-26T01:52:29.142Z,1.11
2019-02-26T01:53:29.159Z,1.14
2019-02-26T01:54:30.505Z,1.14
2019-02-26T01:55:29.208Z,1.14
2019-02-26T01:56:29.100Z,1.18
2019-02-26T01:57:29.199Z,1.14
2019-02-26T01:58:29.082Z,1.13
2019-02-26T01:59:29.101Z,1.18
2019-02-26T02:00:29.085Z,1.08
2019-02-26T02:01:29.117Z,1.08
2019-02-26T02:02:30.284Z,1.04
2019-02-26T02:03:30.235Z,1.00
2019-02-26T02:04:29.017Z,1.04
2019-02-26T02:05:31.286Z,0.99
2019-02-26T02:06:30.284Z,0.96
2019-02-26T02:07:30.595Z,0.98
2019-02-26T02:08:28.973Z,0.96
2019-02-26T02:09:29.102Z,0.95
2019-02-26T02:10:28.950Z,0.95
2019-02-26T02:11:31.199Z,0.84
2019-02-26T02:12:31.549Z,0.90
2019-02-26T02:13:30.653Z,0.90
2019-02-26T02:14:28.903Z,0.93
2019-02-26T02:15:29.039Z,0.84
2019-02-26T02:16:30.913Z,0.86
2019-02-26T02:17:30.885Z,0.82
2019-02-26T02:18:29.903Z,0.78
2019-02-26T02:19:30.199Z,0.78
2019-02-26T02:20:28.838Z,0.80
2019-02-26T02:21:31.095Z,0.81
2019-02-26T02:22:29.570Z,0.84
2019-02-26T02:23:30.355Z,0.81
2019-02-26T02:24:28.838Z,0.80
2019-02-26T02:25:31.403Z,0.74
2019-02-26T02:26:28.780Z,0.74
2019-02-26T02:27:32.983Z,0.74
2019-02-26T02:28:30.987Z,0.72
2019-02-26T02:29:28.794Z,0.70
2019-02-26T02:30:31.269Z,0.72
2019-02-26T02:31:31.252Z,0.70
2019-02-26T02:32:31.864Z,0.75
2019-02-26T02:33:30.029Z,0.80
2019-02-26T02:34:29.555Z,0.67
2019-02-26T02:35:28.734Z,0.77
2019-02-26T02:36:28.743Z,0.59
2019-02-26T02:37:30.061Z,0.68
2019-02-26T02:38:28.650Z,0.70
2019-02-26T02:40:29.751Z,0.49
2019-02-26T02:41:28.673Z,0.60
2019-02-26T02:42:28.768Z,0.64
2019-02-26T02:43:28.700Z,0.67
2019-02-26T02:44:28.581Z,0.68
2019-02-26T02:45:28.598Z,0.68
2019-02-26T02:46:28.593Z,0.74
2019-02-26T02:47:31.589Z,0.57
2019-02-26T02:49:30.112Z,0.62
2019-02-26T02:50:28.650Z,0.48
2019-02-26T02:51:31.112Z,0.48
2019-02-26T02:52:30.369Z,0.62
2019-02-26T02:53:30.208Z,0.57
2019-02-26T02:54:28.471Z,0.60
2019-02-26T02:55:28.567Z,0.60
2019-02-26T02:56:30.760Z,0.53
2019-02-26T02:57:30.031Z,0.56
2019-02-26T02:58:28.432Z,0.51
2019-02-26T03:00:32.200Z,0.45
2019-02-26T03:01:28.789Z,0.48
2019-02-26T03:02:28.414Z,0.44
2019-02-26T03:03:28.421Z,0.44
2019-02-26T03:04:31.164Z,0.44
2019-02-26T03:05:33.689Z,0.44
2019-02-26T03:06:30.572Z,0.51
2019-02-26T03:07:29.415Z,0.51
2019-02-26T03:08:28.318Z,0.48
2019-02-26T03:09:28.354Z,0.49
2019-02-26T03:10:30.823Z,0.49
2019-02-26T03:11:28.368Z,0.48
2019-02-26T03:12:28.296Z,0.44
2019-02-26T03:13:28.386Z,0.45
2019-02-26T03:14:30.765Z,0.44
2019-02-26T03:15:30.013Z,0.45
2019-02-26T03:16:28.230Z,0.44
2019-02-26T03:17:28.341Z,0.45
2019-02-26T03:18:28.241Z,0.37
2019-02-26T03:19:29.641Z,0.44
2019-02-26T03:20:30.835Z,0.44
2019-02-26T03:21:30.517Z,0.33
2019-02-26T03:22:28.168Z,0.34
2019-02-26T03:23:28.277Z,0.31
2019-02-26T03:24:30.771Z,0.44
2019-02-26T03:25:29.153Z,0.28
2019-02-26T03:26:28.124Z,0.35
2019-02-26T03:27:31.361Z,0.30
2019-02-26T03:28:29.141Z,0.38
2019-02-26T03:29:28.188Z,0.26
2019-02-26T03:30:36.946Z,0.25
2019-02-26T03:31:33.717Z,0.34
2019-02-26T03:32:29.129Z,0.28
2019-02-26T03:33:28.085Z,0.33
2019-02-26T03:34:28.119Z,0.35
2019-02-26T03:35:28.028Z,0.28
2019-02-26T03:36:28.135Z,0.34
2019-02-26T03:37:28.810Z,0.23
2019-02-26T03:38:28.869Z,0.25
2019-02-26T03:39:27.977Z,0.25
2019-02-26T03:40:29.892Z,0.26
2019-02-26T03:41:29.083Z,0.20
2019-02-26T03:42:27.969Z,0.22
2019-02-26T03:43:28.709Z,0.16
2019-02-26T03:44:30.307Z,0.22
2019-02-26T03:45:27.914Z,0.19
2019-02-26T03:46:28.000Z,0.23
2019-02-26T03:47:27.899Z,0.26
2019-02-26T03:48:27.948Z,0.20
2019-02-26T03:49:27.870Z,0.25
2019-02-26T03:50:27.926Z,0.30
2019-02-26T03:51:27.846Z,0.23
2019-02-26T03:52:28.974Z,0.25
2019-02-26T03:53:30.240Z,0.25
2019-02-26T03:54:28.903Z,0.28
2019-02-26T03:55:27.806Z,0.20
2019-02-26T03:56:27.866Z,0.23
2019-02-26T03:57:27.784Z,0.25
2019-02-26T03:58:27.879Z,0.33
2019-02-26T03:59:27.814Z,0.33
2019-02-26T04:00:27.789Z,0.25
2019-02-26T04:01:27.738Z,0.33
2019-02-26T04:02:27.803Z,0.23
2019-02-26T04:03:29.594Z,0.30
2019-02-26T04:04:30.485Z,0.28
2019-02-26T04:05:27.717Z,0.25
2019-02-26T04:06:27.728Z,0.19
2019-02-26T04:07:28.367Z,0.19
2019-02-26T04:08:30.140Z,0.16
2019-02-26T04:09:27.681Z,0.20
2019-02-26T04:10:27.765Z,0.20
2019-02-26T04:11:27.845Z,0.20
2019-02-26T04:12:27.665Z,0.17
2019-02-26T04:13:27.608Z,0.13
2019-02-26T04:14:28.782Z,0.17
2019-02-26T04:15:29.997Z,0.16
2019-02-26T04:16:29.638Z,0.08
2019-02-26T04:17:28.696Z,0.08
2019-02-26T04:18:27.615Z,0.12
2019-02-26T04:19:27.560Z,0.02
2019-02-26T04:20:27.931Z,0.08
2019-02-26T04:21:27.514Z,-0.01
2019-02-26T04:22:27.547Z,0.07
2019-02-26T04:23:27.498Z,0.04
2019-02-26T04:25:32.728Z,-0.06
2019-02-26T04:26:29.146Z,-0.09
2019-02-26T04:27:28.251Z,-0.12
2019-02-26T04:28:30.839Z,-0.12
2019-02-26T04:29:28.425Z,-0.14
2019-02-26T04:30:27.513Z,-0.19
2019-02-26T04:31:27.401Z,-0.20
2019-02-26T04:32:27.500Z,-0.16
2019-02-26T04:33:28.447Z,-0.24
2019-02-26T04:34:27.412Z,-0.17
2019-02-26T04:35:27.381Z,-0.24
2019-02-26T04:36:27.462Z,-0.21
2019-02-26T04:37:29.633Z,-0.20
2019-02-26T04:38:29.083Z,-0.27
2019-02-26T04:39:27.332Z,-0.23
2019-02-26T04:40:30.034Z,-0.23
2019-02-26T04:41:27.318Z,-0.21
2019-02-26T04:42:27.365Z,-0.26
2019-02-26T04:43:27.916Z,-0.30
2019-02-26T04:44:29.213Z,-0.23
2019-02-26T04:45:27.256Z,-0.27
2019-02-26T04:46:28.882Z,-0.27
2019-02-26T04:47:29.800Z,-0.31
2019-02-26T04:48:29.241Z,-0.41
2019-02-26T04:49:28.163Z,-0.39
2019-02-26T04:50:31.646Z,-0.35
2019-02-26T04:51:28.221Z,-0.34
2019-02-26T04:52:29.372Z,-0.34
2019-02-26T04:53:28.719Z,-0.30
2019-02-26T04:54:30.238Z,-0.39
2019-02-26T04:55:29.284Z,-0.32
2019-02-26T04:56:31.294Z,-0.34
2019-02-26T04:57:28.117Z,-0.35
2019-02-26T04:58:27.678Z,-0.42
2019-02-26T04:59:29.792Z,-0.37
2019-02-26T05:00:30.463Z,-0.38
2019-02-26T05:01:27.117Z,-0.37
2019-02-26T05:03:28.246Z,-0.31
2019-02-26T05:05:31.223Z,-0.37
2019-02-26T05:06:28.176Z,-0.41
2019-02-26T05:07:27.042Z,-0.32
2019-02-26T05:09:30.009Z,-0.44
2019-02-26T05:11:32.583Z,-0.35
2019-02-26T05:12:30.889Z,-0.37
2019-02-26T05:13:30.212Z,-0.45
2019-02-26T05:15:31.053Z,-0.41
2019-02-26T05:16:31.649Z,-0.47
2019-02-26T05:17:29.711Z,-0.47
2019-02-26T05:19:28.020Z,-0.35
2019-02-26T05:20:31.258Z,-0.35
2019-02-26T05:21:27.991Z,-0.42
2019-02-26T05:22:31.015Z,-0.44
2019-02-26T05:23:28.887Z,-0.42
2019-02-26T05:26:02.893Z,-0.41
2019-02-26T05:28:00.306Z,-0.50
2019-02-26T05:28:59.117Z,-0.49
2019-02-26T05:29:59.129Z,-0.49
2019-02-26T05:30:59.086Z,-0.55
2019-02-26T05:32:00.946Z,-0.47
2019-02-26T05:33:00.688Z,-0.47
2019-02-26T05:35:00.229Z,-0.45
2019-02-26T05:35:59.051Z,-0.50
2019-02-26T05:36:59.778Z,-0.53
2019-02-26T05:38:01.577Z,-0.59
2019-02-26T05:39:00.354Z,-0.52
2019-02-26T05:39:58.991Z,-0.47
2019-02-26T05:40:59.411Z,-0.55
2019-02-26T05:42:01.287Z,-0.50
2019-02-26T05:43:01.287Z,-0.60
2019-02-26T05:44:03.512Z,-0.59
2019-02-26T05:45:02.996Z,-0.60
2019-02-26T05:46:00.690Z,-0.62
2019-02-26T05:47:01.364Z,-0.56
2019-02-26T05:47:59.107Z,-0.63
2019-02-26T05:48:58.986Z,-0.62
2019-02-26T05:49:59.539Z,-0.58
2019-02-26T05:51:01.042Z,-0.58
2019-02-26T05:52:01.454Z,-0.60
2019-02-26T05:53:01.888Z,-0.58
2019-02-26T05:54:02.221Z,-0.52
2019-02-26T05:54:59.922Z,-0.47
2019-02-26T05:55:58.818Z,-0.47
2019-02-26T05:56:58.910Z,-0.45
2019-02-26T05:57:58.799Z,-0.26
2019-02-26T05:59:02.055Z,-0.17
2019-02-26T05:59:59.775Z,-0.14
2019-02-26T06:00:58.946Z,-0.19
2019-02-26T06:01:58.752Z,-0.08
2019-02-26T06:02:58.847Z,-0.23
2019-02-26T06:03:58.737Z,-0.14
2019-02-26T06:04:58.790Z,-0.12
2019-02-26T06:06:00.548Z,-0.05
2019-02-26T06:06:59.778Z,-0.09
2019-02-26T06:07:58.690Z,-0.14
2019-02-26T06:08:59.869Z,-0.13
2019-02-26T06:09:59.199Z,-0.20
2019-02-26T06:10:58.807Z,-0.14
2019-02-26T06:11:58.645Z,-0.27
2019-02-26T06:12:58.710Z,-0.16
2019-02-26T06:14:02.220Z,-0.27
2019-02-26T06:15:04.223Z,-0.26
2019-02-26T06:16:01.971Z,-0.27
2019-02-26T06:16:58.639Z,-0.30
2019-02-26T06:17:58.579Z,-0.37
2019-02-26T06:18:58.685Z,-0.30
2019-02-26T06:20:01.417Z,-0.37
2019-02-26T06:21:01.289Z,-0.39
2019-02-26T06:21:58.539Z,-0.49
2019-02-26T06:22:58.575Z,-0.47
2019-02-26T06:23:58.527Z,-0.50
2019-02-26T06:25:00.290Z,-0.52
2019-02-26T06:26:01.417Z,-0.47
2019-02-26T06:26:59.526Z,-0.49
2019-02-26T06:28:02.272Z,-0.47
2019-02-26T06:28:59.547Z,-0.53
2019-02-26T06:30:00.275Z,-0.58
2019-02-26T06:30:58.531Z,-0.49
2019-02-26T06:31:58.427Z,-0.53
2019-02-26T06:33:02.109Z,-0.49
2019-02-26T06:34:01.464Z,-0.49
2019-02-26T06:34:58.587Z,-0.50
2019-02-26T06:35:59.833Z,-0.44
2019-02-26T06:36:58.465Z,-0.39
2019-02-26T06:37:59.593Z,-0.47
2019-02-26T06:38:58.989Z,-0.38
2019-02-26T06:40:00.483Z,-0.39
2019-02-26T06:40:58.423Z,-0.45
2019-02-26T06:41:58.322Z,-0.37
2019-02-26T06:42:58.420Z,-0.34
2019-02-26T06:43:58.304Z,-0.35
2019-02-26T06:44:58.320Z,-0.37
2019-02-26T06:46:00.164Z,-0.39
2019-02-26T06:47:00.239Z,-0.39
2019-02-26T06:47:58.620Z,-0.32
2019-02-26T06:48:58.349Z,-0.35
2019-02-26T06:49:58.258Z,-0.34
2019-02-26T06:51:00.426Z,-0.30
2019-02-26T06:51:58.214Z,-0.31
2019-02-26T06:52:58.294Z,-0.24
2019-02-26T06:53:58.847Z,-0.21
2019-02-26T06:55:00.212Z,-0.20
2019-02-26T06:55:58.570Z,-0.21
2019-02-26T06:56:58.204Z,-0.23
2019-02-26T06:57:58.150Z,-0.17
2019-02-26T06:58:58.217Z,-0.21
2019-02-26T07:00:01.006Z,-0.13
2019-02-26T07:00:58.259Z,-0.14
2019-02-26T07:01:58.111Z,-0.20
2019-02-26T07:03:01.984Z,-0.13
2019-02-26T07:03:58.086Z,-0.13
2019-02-26T07:04:58.158Z,-0.12
2019-02-26T07:06:01.710Z,-0.05
2019-02-26T07:06:59.411Z,-0.06
2019-02-26T07:07:59.551Z,-0.03
2019-02-26T07:08:58.076Z,-0.03
2019-02-26T07:09:58.240Z,0.04
2019-02-26T07:10:58.118Z,0.08
2019-02-26T07:11:58.009Z,0.08
2019-02-26T07:12:58.105Z,0.15
2019-02-26T07:13:58.867Z,0.16
2019-02-26T07:14:58.224Z,0.13
2019-02-26T07:15:57.985Z,0.22
2019-02-26T07:16:59.194Z,0.19
2019-02-26T07:18:00.114Z,0.33
2019-02-26T07:18:59.038Z,0.30
2019-02-26T07:20:00.119Z,0.28
2019-02-26T07:21:00.082Z,0.23
2019-02-26T07:21:57.919Z,0.31
2019-02-26T07:22:57.967Z,0.34
2019-02-26T07:23:58.805Z,0.34
2019-02-26T07:24:57.986Z,0.37
2019-02-26T07:25:57.845Z,0.33
2019-02-26T07:26:57.931Z,0.45
2019-02-26T07:27:58.931Z,0.44
2019-02-26T07:28:57.909Z,0.60
2019-02-26T07:29:57.831Z,0.49
2019-02-26T07:30:57.824Z,0.56
2019-02-26T07:31:58.872Z,0.67
2019-02-26T07:32:57.835Z,0.74
2019-02-26T07:33:58.229Z,0.81
2019-02-26T07:34:58.179Z,0.78
2019-02-26T07:35:59.418Z,0.92
2019-02-26T07:36:57.791Z,0.92
2019-02-26T07:37:59.461Z,0.96
2019-02-26T07:38:57.772Z,0.93
2019-02-26T07:39:57.695Z,1.00
2019-02-26T07:41:00.825Z,1.11
2019-02-26T07:41:57.679Z,1.08
2019-02-26T07:42:57.744Z,1.17
2019-02-26T07:43:57.648Z,1.28
2019-02-26T07:44:57.712Z,1.32
2019-02-26T07:45:57.624Z,1.26
2019-02-26T07:46:58.812Z,1.34
2019-02-26T07:47:58.372Z,1.38
2019-02-26T07:48:59.897Z,1.44
2019-02-26T07:50:00.757Z,1.56
2019-02-26T07:50:57.654Z,1.67
2019-02-26T07:51:59.784Z,1.65
2019-02-26T07:52:59.418Z,1.64
2019-02-26T07:53:58.385Z,1.82
2019-02-26T07:54:57.579Z,1.81
2019-02-26T07:55:58.798Z,1.83
2019-02-26T07:57:00.044Z,1.90
2019-02-26T07:57:57.516Z,2.04
2019-02-26T07:59:01.263Z,2.05
2019-02-26T07:59:57.479Z,2.07
2019-02-26T08:00:57.517Z,2.09
2019-02-26T08:01:57.448Z,2.19
2019-02-26T08:02:59.686Z,2.25
2019-02-26T08:03:57.426Z,2.36
2019-02-26T08:04:57.439Z,2.36
2019-02-26T08:05:59.275Z,2.45
2019-02-26T08:06:59.592Z,2.51
2019-02-26T08:07:57.423Z,2.55
2019-02-26T08:08:57.471Z,2.55
2019-02-26T08:09:57.366Z,2.73
2019-02-26T08:10:57.400Z,2.77
2019-02-26T08:11:57.341Z,2.81
2019-02-26T08:12:59.209Z,2.79
2019-02-26T08:13:59.157Z,2.99
2019-02-26T08:14:57.406Z,2.94
2019-02-26T08:15:58.202Z,3.05
2019-02-26T08:16:59.578Z,3.15
2019-02-26T08:17:58.444Z,3.17
2019-02-26T08:18:58.890Z,3.25
2019-02-26T08:19:57.259Z,3.34
2019-02-26T08:20:59.844Z,3.37
2019-02-26T08:21:57.240Z,3.41
2019-02-26T08:22:58.696Z,3.50
2019-02-26T08:23:57.247Z,3.60
2019-02-26T08:24:58.101Z,3.60
2019-02-26T08:25:59.276Z,3.71
2019-02-26T08:26:57.290Z,3.74
2019-02-26T08:27:58.897Z,3.86
2019-02-26T08:28:57.428Z,3.88
2019-02-26T08:29:58.720Z,4.02
2019-02-26T08:30:57.391Z,4.11
2019-02-26T08:31:58.987Z,4.14
2019-02-26T08:32:58.897Z,4.29
2019-02-26T08:33:57.154Z,4.31
2019-02-26T08:34:59.937Z,4.38
2019-02-26T08:35:57.090Z,4.42
2019-02-26T08:36:57.152Z,4.53
2019-02-26T08:37:57.068Z,4.65
2019-02-26T08:38:57.315Z,4.62
2019-02-26T08:39:57.772Z,4.75
2019-02-26T08:40:57.077Z,4.77
2019-02-26T08:41:57.022Z,4.87
2019-02-26T08:42:57.093Z,4.97
2019-02-26T08:43:58.773Z,5.09
2019-02-26T08:44:58.197Z,5.17
2019-02-26T08:45:56.981Z,5.37
2019-02-26T08:46:57.017Z,5.26
2019-02-26T08:47:56.961Z,5.33
2019-02-26T08:48:57.031Z,5.51
2019-02-26T08:49:58.812Z,5.48
2019-02-26T08:51:00.856Z,5.62
2019-02-26T08:51:57.915Z,5.75
2019-02-26T08:52:58.470Z,5.87
2019-02-26T08:53:57.296Z,5.88
2019-02-26T08:54:56.995Z,6.02
2019-02-26T08:55:58.869Z,5.99
2019-02-26T08:56:56.990Z,6.16
2019-02-26T08:57:56.850Z,6.21
2019-02-26T08:58:58.555Z,6.35
2019-02-26T08:59:56.873Z,6.38
2019-02-26T09:00:56.909Z,6.46
2019-02-26T09:01:56.828Z,6.57
2019-02-26T09:02:56.906Z,6.73
2019-02-26T09:03:58.912Z,6.81
2019-02-26T09:04:59.122Z,6.94
2019-02-26T09:06:09.947Z,6.96
2019-02-26T09:07:00.291Z,7.05
2019-02-26T09:07:56.853Z,7.09
2019-02-26T09:08:57.964Z,7.24
2019-02-26T09:09:57.548Z,7.29
2019-02-26T09:10:56.749Z,7.36
2019-02-26T09:11:58.849Z,7.39
2019-02-26T09:12:56.685Z,7.39
2019-02-26T09:13:59.624Z,7.52
2019-02-26T09:14:57.672Z,7.48
2019-02-26T09:16:00.059Z,7.58
2019-02-26T09:16:59.074Z,7.76
2019-02-26T09:17:56.717Z,7.85
2019-02-26T09:18:56.628Z,7.85
2019-02-26T09:20:08.338Z,7.95
2019-02-26T09:20:57.620Z,7.94
2019-02-26T09:21:56.650Z,8.10
2019-02-26T09:22:58.730Z,8.17
2019-02-26T09:23:57.825Z,8.18
2019-02-26T09:24:57.409Z,8.36
2019-02-26T09:25:59.295Z,8.39
2019-02-26T09:26:57.501Z,8.32
2019-02-26T09:27:56.583Z,8.36
2019-02-26T09:28:57.156Z,8.50
2019-02-26T09:29:56.602Z,8.49
2019-02-26T09:31:01.036Z,8.58
2019-02-26T09:31:57.562Z,8.68
2019-02-26T09:32:58.453Z,8.76
2019-02-26T09:33:56.526Z,8.85
2019-02-26T09:34:58.740Z,8.96
2019-02-26T09:35:56.784Z,9.03
2019-02-26T09:36:58.245Z,9.00
2019-02-26T09:38:00.678Z,9.12
2019-02-26T09:38:56.397Z,9.16
2019-02-26T09:40:57.511Z,9.26
2019-02-26T09:41:57.584Z,9.44
2019-02-26T09:42:58.132Z,9.38
2019-02-26T09:43:56.393Z,9.53
2019-02-26T09:44:57.658Z,9.60
2019-02-26T09:45:56.407Z,9.70
2019-02-26T09:46:58.317Z,9.80
2019-02-26T09:48:57.937Z,10.09
2019-02-26T09:49:58.293Z,10.06
2019-02-26T09:50:56.265Z,10.18
2019-02-26T09:51:56.825Z,10.11
2019-02-26T09:52:58.972Z,10.20
2019-02-26T09:53:57.178Z,10.35
2019-02-26T09:54:56.226Z,10.32
2019-02-26T09:55:56.271Z,10.43
2019-02-26T09:56:56.215Z,10.44
2019-02-26T09:57:56.323Z,10.54
2019-02-26T09:58:56.183Z,10.62
2019-02-26T09:59:58.205Z,10.55
2019-02-26T10:00:56.226Z,10.75
2019-02-26T10:01:56.931Z,10.87
2019-02-26T10:02:56.216Z,10.81
2019-02-26T10:03:58.260Z,10.81
2019-02-26T10:04:56.207Z,11.01
2019-02-26T10:05:57.893Z,10.99
2019-02-26T10:06:56.128Z,11.08
2019-02-26T10:07:59.319Z,11.12
2019-02-26T10:08:56.216Z,11.17
2019-02-26T10:09:56.253Z,11.24
2019-02-26T10:10:57.643Z,11.24
2019-02-26T10:11:56.197Z,11.31
2019-02-26T10:12:59.218Z,11.35
2019-02-26T10:13:56.147Z,11.42
2019-02-26T10:14:59.600Z,11.57
2019-02-26T10:15:59.269Z,11.59
2019-02-26T10:16:57.002Z,11.67
2019-02-26T10:17:58.643Z,11.78
2019-02-26T10:18:56.777Z,11.88
2019-02-26T10:19:56.961Z,11.93
2019-02-26T10:20:55.948Z,11.98
2019-02-26T10:21:57.266Z,11.98
2019-02-26T10:22:58.654Z,12.11
2019-02-26T10:23:56.894Z,12.12
2019-02-26T10:24:55.901Z,12.13
2019-02-26T10:25:57.810Z,12.19
2019-02-26T10:26:58.654Z,12.26
2019-02-26T10:27:56.982Z,12.23
2019-02-26T10:29:02.241Z,12.37
2019-02-26T10:29:56.943Z,12.49
2019-02-26T10:30:57.018Z,12.49
2019-02-26T10:31:56.688Z,12.49
2019-02-26T10:32:55.913Z,12.67
2019-02-26T10:33:55.831Z,12.69
2019-02-26T10:34:55.945Z,12.74
2019-02-26T10:35:55.839Z,12.80
2019-02-26T10:36:55.859Z,12.85
2019-02-26T10:37:57.079Z,12.89
2019-02-26T10:38:57.784Z,12.95
2019-02-26T10:39:55.784Z,13.01
2019-02-26T10:40:57.329Z,12.91
2019-02-26T10:41:55.752Z,12.95
2019-02-26T10:42:55.782Z,13.03
2019-02-26T10:43:55.731Z,12.95
2019-02-26T10:44:55.789Z,13.04
2019-02-26T10:45:55.675Z,13.06
2019-02-26T10:46:55.805Z,13.09
2019-02-26T10:47:56.892Z,13.14
2019-02-26T10:48:55.766Z,13.24
2019-02-26T10:49:56.487Z,13.32
2019-02-26T10:50:55.755Z,13.25
2019-02-26T10:51:57.866Z,13.31
2019-02-26T10:53:01.760Z,13.28
2019-02-26T10:53:59.623Z,13.35
2019-02-26T10:54:55.650Z,13.38
2019-02-26T10:55:55.567Z,13.44
2019-02-26T10:56:57.422Z,13.48
2019-02-26T10:57:58.354Z,13.53
2019-02-26T10:59:01.926Z,13.55
2019-02-26T10:59:57.639Z,13.59
2019-02-26T11:00:58.683Z,13.69
2019-02-26T11:01:58.429Z,13.79
2019-02-26T11:02:55.613Z,13.84
2019-02-26T11:03:55.497Z,13.86
2019-02-26T11:04:55.687Z,13.94
2019-02-26T11:05:55.454Z,14.01
2019-02-26T11:06:55.660Z,14.13
2019-02-26T11:07:58.904Z,14.13
2019-02-26T11:08:58.721Z,14.12
2019-02-26T11:09:56.238Z,14.24
2019-02-26T11:10:55.463Z,14.31
2019-02-26T11:11:57.679Z,14.30
2019-02-26T11:12:58.535Z,14.41
2019-02-26T11:13:55.371Z,14.39
2019-02-26T11:14:56.274Z,14.52
2019-02-26T11:15:57.413Z,14.52
2019-02-26T11:16:55.447Z,14.57
2019-02-26T11:17:55.921Z,14.60
2019-02-26T11:18:55.407Z,14.59
2019-02-26T11:19:58.045Z,14.66
2019-02-26T11:20:56.798Z,14.71
2019-02-26T11:21:58.064Z,14.72
2019-02-26T11:22:55.378Z,14.85
2019-02-26T11:23:55.255Z,14.94
2019-02-26T11:24:56.206Z,14.93
2019-02-26T11:25:55.317Z,15.01
2019-02-26T11:26:55.258Z,14.98
2019-02-26T11:27:55.268Z,15.04
2019-02-26T11:28:55.274Z,15.11
2019-02-26T11:29:57.839Z,15.19
2019-02-26T11:30:56.699Z,15.18
2019-02-26T11:31:55.177Z,15.23
2019-02-26T11:32:58.676Z,15.25
2019-02-26T11:33:57.309Z,15.35
2019-02-26T11:34:57.512Z,15.31
2019-02-26T11:35:55.164Z,15.31
2019-02-26T11:36:56.123Z,15.27
2019-02-26T11:37:57.425Z,15.40
2019-02-26T11:38:55.143Z,15.51
2019-02-26T11:39:57.168Z,15.49
2019-02-26T11:40:55.151Z,15.67
2019-02-26T11:41:56.786Z,15.71
2019-02-26T11:42:55.165Z,15.64
2019-02-26T11:43:55.041Z,15.70
2019-02-26T11:44:55.082Z,15.66
2019-02-26T11:45:56.671Z,15.77
2019-02-26T11:46:56.437Z,15.73
2019-02-26T11:47:57.347Z,15.74
2019-02-26T11:48:57.290Z,15.77
2019-02-26T11:49:54.974Z,15.85
2019-02-26T11:50:55.021Z,15.86
2019-02-26T11:51:55.003Z,15.80
2019-02-26T11:52:55.203Z,15.92
2019-02-26T11:53:54.981Z,15.98
2019-02-26T11:54:56.315Z,16.03
2019-02-26T11:55:56.769Z,16.11
2019-02-26T11:56:54.966Z,16.13
2019-02-26T11:57:54.925Z,16.17
2019-02-26T11:58:54.878Z,16.18
2019-02-26T11:59:57.035Z,16.26
2019-02-26T12:00:57.076Z,16.36
2019-02-26T12:01:57.246Z,16.45
2019-02-26T12:02:54.838Z,16.48
2019-02-26T12:03:56.257Z,16.47
2019-02-26T12:05:56.727Z,16.60
2019-02-26T12:06:55.890Z,16.69
2019-02-26T12:07:56.428Z,16.65
2019-02-26T12:08:54.874Z,16.72
2019-02-26T12:09:55.461Z,16.70
2019-02-26T12:10:57.767Z,16.75
2019-02-26T12:11:56.028Z,16.67
2019-02-26T12:12:56.736Z,16.75
2019-02-26T12:13:54.743Z,16.73
2019-02-26T12:14:54.809Z,16.70
2019-02-26T12:15:54.765Z,16.98
2019-02-26T12:16:54.809Z,16.98
2019-02-26T12:17:56.489Z,16.98
2019-02-26T12:18:54.699Z,17.05
2019-02-26T12:19:55.847Z,16.99
2019-02-26T12:20:54.722Z,17.06
2019-02-26T12:21:57.288Z,17.12
2019-02-26T12:22:55.428Z,17.21
2019-02-26T12:23:54.634Z,17.25
2019-02-26T12:24:55.995Z,17.30
2019-02-26T12:25:55.499Z,17.33
2019-02-26T12:26:54.776Z,17.39
2019-02-26T12:27:54.590Z,17.39
2019-02-26T12:28:55.231Z,17.25
2019-02-26T12:29:54.767Z,17.46
2019-02-26T12:30:54.580Z,17.46
2019-02-26T12:31:55.636Z,17.42
2019-02-26T12:32:55.150Z,17.57
2019-02-26T12:33:54.525Z,17.49
2019-02-26T12:34:54.607Z,17.53
2019-02-26T12:35:56.304Z,17.43
2019-02-26T12:36:57.230Z,17.49
2019-02-26T12:37:58.889Z,17.57
2019-02-26T12:38:56.485Z,17.60
2019-02-26T12:39:55.535Z,17.66
2019-02-26T12:40:54.548Z,17.73
2019-02-26T12:41:54.409Z,17.71
2019-02-26T12:42:54.466Z,17.77
2019-02-26T12:43:54.386Z,17.89
2019-02-26T12:44:57.229Z,17.87
2019-02-26T12:45:56.071Z,17.89
2019-02-26T12:46:56.635Z,17.87
2019-02-26T12:47:55.197Z,17.94
2019-02-26T12:48:54.891Z,17.94
2019-02-26T12:49:56.196Z,17.99
2019-02-26T12:50:55.503Z,18.01
2019-02-26T12:51:56.756Z,17.94
2019-02-26T12:52:56.779Z,18.02
2019-02-26T12:53:54.294Z,18.04
2019-02-26T12:54:54.972Z,18.01
2019-02-26T12:55:56.516Z,17.95
2019-02-26T12:56:54.996Z,18.01
2019-02-26T12:57:56.462Z,18.02
2019-02-26T12:58:55.312Z,18.17
2019-02-26T12:59:54.237Z,18.13
2019-02-26T13:00:54.276Z,18.04
2019-02-26T13:01:54.186Z,17.92
2019-02-26T13:02:54.291Z,17.87
2019-02-26T13:03:55.122Z,17.94
2019-02-26T13:04:54.238Z,17.99
2019-02-26T13:05:54.146Z,18.05
2019-02-26T13:06:54.214Z,18.13
2019-02-26T13:07:54.154Z,18.14
2019-02-26T13:08:54.258Z,18.14
2019-02-26T13:09:56.092Z,18.26
2019-02-26T13:10:57.851Z,18.26
2019-02-26T13:12:00.953Z,18.38
2019-02-26T13:13:01.438Z,18.34
2019-02-26T13:13:55.086Z,18.29
2019-02-26T13:14:56.477Z,18.34
2019-02-26T13:15:55.078Z,18.39
2019-02-26T13:16:57.151Z,18.44
2019-02-26T13:17:55.008Z,18.44
2019-02-26T13:19:00.121Z,18.51
2019-02-26T13:19:58.946Z,18.51
2019-02-26T13:20:59.425Z,18.53
2019-02-26T13:22:04.723Z,18.64
2019-02-26T13:22:58.727Z,18.71
2019-02-26T13:23:58.687Z,18.72
2019-02-26T13:24:55.057Z,18.79
2019-02-26T13:25:53.938Z,18.87